createdAt,value
2023-03-01T00:45:37.725Z,99350.47
2023-03-01T00:50:39.828Z,99342.66
2023-03-01T00:55:41.709Z,99334.72
2023-03-01T01:00:43.444Z,99327.69
2023-03-01T01:05:45.766Z,99316.44
2023-03-01T01:10:48.303Z,99314.59
2023-03-01T01:15:50.319Z,99307.75
2023-03-01T01:20:51.997Z,99292.81
2023-03-01T01:25:53.795Z,99291.09
2023-03-01T01:30:55.690Z,99298.97
2023-03-01T01:35:57.627Z,99291.09
2023-03-01T01:41:00.793Z,99284.09
2023-03-01T01:46:14.196Z,99276.22
2023-03-01T01:51:25.014Z,99275.41
2023-03-01T01:56:30.424Z,99275.38
2023-03-01T02:01:32.931Z,99267.59
2023-03-01T02:06:47.287Z,99264.03
2023-03-01T02:11:50.017Z,99257.97
2023-03-01T02:16:52.388Z,99257.06
2023-03-01T02:22:07.707Z,99250.09
2023-03-01T02:27:10.813Z,99251.81
2023-03-01T02:32:13.895Z,99245.75
2023-03-01T02:37:22.594Z,99243.13
2023-03-01T02:42:31.553Z,99243.19
2023-03-01T02:47:33.672Z,99251.13
2023-03-01T02:52:58.994Z,99255.47
2023-03-01T02:58:04.092Z,99247.63
2023-03-01T03:03:06.041Z,99258.09
2023-03-01T03:08:08.776Z,99261.69
2023-03-01T03:13:15.263Z,99254.63
2023-03-01T03:18:18.166Z,99255.78
2023-03-01T03:23:22.185Z,99253.78
2023-03-01T03:28:23.993Z,99249.34
2023-03-01T03:33:25.710Z,99246.75
2023-03-01T03:38:27.333Z,99245.91
2023-03-01T03:43:30.117Z,99237.16
2023-03-01T03:48:34.129Z,99244.13
2023-03-01T03:53:36.038Z,99238.06
2023-03-01T03:58:37.762Z,99230.16
2023-03-01T04:03:39.369Z,99230.09
2023-03-01T04:08:42.061Z,99236.28
2023-03-01T04:13:43.741Z,99236.34
2023-03-01T04:18:45.930Z,99248.56
2023-03-01T04:23:47.544Z,99247.75
2023-03-01T04:28:51.425Z,99245.00
2023-03-01T04:33:56.244Z,99238.88
2023-03-01T04:38:57.961Z,99233.72
2023-03-01T04:44:01.148Z,99222.25
2023-03-01T04:49:04.073Z,99232.72
2023-03-01T04:54:09.846Z,99238.81
2023-03-01T04:59:13.673Z,99227.50
2023-03-01T05:04:15.590Z,99245.00
2023-03-01T05:09:17.646Z,99243.31
2023-03-01T05:14:19.485Z,99259.88
2023-03-01T05:19:23.893Z,99252.06
2023-03-01T05:24:25.967Z,99257.38
2023-03-01T05:29:29.951Z,99252.84
2023-03-01T05:34:34.561Z,99245.91
2023-03-01T05:39:37.226Z,99248.59
2023-03-01T05:44:39.331Z,99249.47
2023-03-01T05:49:41.138Z,99251.22
2023-03-01T05:54:42.876Z,99261.69
2023-03-01T05:59:44.733Z,99263.13
2023-03-01T06:04:46.566Z,99262.72
2023-03-01T06:09:48.275Z,99278.19
2023-03-01T06:14:50.201Z,99277.44
2023-03-01T06:19:52.481Z,99272.41
2023-03-01T06:24:54.158Z,99275.66
2023-03-01T06:29:55.917Z,99279.22
2023-03-01T06:34:57.818Z,99275.63
2023-03-01T06:39:59.698Z,99287.03
2023-03-01T06:45:01.399Z,99277.31
2023-03-01T06:50:04.200Z,99288.66
2023-03-01T06:55:06.700Z,99288.63
2023-03-01T07:00:09.516Z,99298.50
2023-03-01T07:05:11.199Z,99299.38
2023-03-01T07:10:13.795Z,99301.06
2023-03-01T07:15:16.291Z,99310.53
2023-03-01T07:20:25.623Z,99315.09
2023-03-01T07:25:27.435Z,99319.22
2023-03-01T07:30:29.724Z,99315.78
2023-03-01T07:35:31.415Z,99321.16
2023-03-01T07:40:33.083Z,99323.66
2023-03-01T07:45:34.756Z,99320.09
2023-03-01T07:50:36.506Z,99321.19
2023-03-01T07:55:39.772Z,99324.72
2023-03-01T08:00:41.478Z,99324.56
2023-03-01T08:05:43.144Z,99305.41
2023-03-01T08:10:44.820Z,99307.00
2023-03-01T08:15:46.520Z,99314.81
2023-03-01T08:20:48.573Z,99317.44
2023-03-01T08:25:50.245Z,99310.44
2023-03-01T08:30:51.876Z,99301.66
2023-03-01T08:35:53.619Z,99296.50
2023-03-01T08:40:55.269Z,99302.59
2023-03-01T08:45:57.049Z,99298.94
2023-03-01T08:51:09.491Z,99289.16
2023-03-01T08:56:11.434Z,99272.53
2023-03-01T09:01:16.562Z,99261.41
2023-03-01T09:06:18.732Z,99246.38
2023-03-01T09:11:23.109Z,99253.22
2023-03-01T09:16:26.588Z,99249.81
2023-03-01T09:21:39.687Z,99240.28
2023-03-01T09:26:42.169Z,99235.91
2023-03-01T09:31:44.574Z,99245.41
2023-03-01T09:36:46.497Z,99238.81
2023-03-01T09:42:03.533Z,99236.94
2023-03-01T09:47:06.475Z,99230.47
2023-03-01T09:52:25.692Z,99226.13
2023-03-01T09:57:29.578Z,99215.56
2023-03-01T10:02:43.994Z,99220.00
2023-03-01T10:08:16.138Z,99226.03
2023-03-01T10:13:26.810Z,99238.34
2023-03-01T10:18:33.711Z,99248.91
2023-03-01T10:23:36.930Z,99256.66
2023-03-01T10:28:51.070Z,99272.47
2023-03-01T10:33:56.005Z,99270.75
2023-03-01T10:38:58.886Z,99265.47
2023-03-01T10:44:01.493Z,99258.56
2023-03-01T10:49:24.170Z,99246.28
2023-03-01T10:54:29.003Z,99247.94
2023-03-01T10:59:36.807Z,99240.19
2023-03-01T11:04:40.367Z,99235.56
2023-03-01T11:09:42.181Z,99236.44
2023-03-01T11:14:52.528Z,99228.66
2023-03-01T11:20:29.068Z,99228.47
2023-03-01T11:25:37.265Z,99227.69
2023-03-01T11:31:07.119Z,99210.06
2023-03-01T11:36:22.135Z,99212.94
2023-03-01T11:41:37.630Z,99202.22
2023-03-01T11:47:16.876Z,99199.63
2023-03-01T11:52:23.163Z,99184.63
2023-03-01T11:57:48.091Z,99166.03
2023-03-01T12:03:04.984Z,99154.63
2023-03-01T12:08:41.851Z,99160.66
2023-03-01T12:14:18.782Z,99149.22
2023-03-01T12:19:36.701Z,99133.44
2023-03-01T12:25:14.459Z,99117.75
2023-03-01T12:30:22.420Z,99107.19
2023-03-01T12:35:27.287Z,99107.13
2023-03-01T12:40:29.352Z,99103.72
2023-03-01T12:46:00.027Z,99095.66
2023-03-01T12:51:07.314Z,99093.78
2023-03-01T12:56:22.521Z,99087.78
2023-03-01T13:01:41.802Z,99081.72
2023-03-01T13:06:59.645Z,99080.88
2023-03-01T13:12:02.927Z,99079.09
2023-03-01T13:17:42.867Z,99063.25
2023-03-01T13:22:54.810Z,99059.13
2023-03-01T13:28:39.406Z,99044.25
2023-03-01T13:33:47.536Z,99040.69
2023-03-01T13:39:00.677Z,99045.81
2023-03-01T13:44:02.491Z,99038.03
2023-03-01T13:49:04.587Z,99035.34
2023-03-01T13:54:06.396Z,99033.63
2023-03-01T13:59:15.806Z,99032.78
2023-03-01T14:04:36.964Z,99021.50
2023-03-01T14:09:44.713Z,99016.19
2023-03-01T14:15:02.491Z,99013.59
2023-03-01T14:20:13.518Z,99007.44
2023-03-01T14:25:26.873Z,99005.56
2023-03-01T14:30:35.292Z,98997.84
2023-03-01T14:35:37.884Z,98995.94
2023-03-01T14:40:39.951Z,98991.66
2023-03-01T14:45:49.482Z,98989.91
2023-03-01T14:50:52.260Z,98979.41
2023-03-01T14:56:05.029Z,98977.72
2023-03-01T15:01:09.601Z,98982.00
2023-03-01T15:06:13.824Z,98978.44
2023-03-01T15:11:18.618Z,98980.31
2023-03-01T15:16:25.346Z,98960.88
2023-03-01T15:21:47.292Z,98960.88
2023-03-01T15:26:54.993Z,98963.69
2023-03-01T15:32:25.096Z,98961.16
2023-03-01T15:37:42.642Z,98969.94
2023-03-01T15:42:44.430Z,98964.78
2023-03-01T15:47:55.702Z,98967.63
2023-03-01T15:53:00.476Z,98971.44
2023-03-01T15:58:07.835Z,98960.81
2023-03-01T16:03:12.891Z,98959.28
2023-03-01T16:08:15.403Z,98964.41
2023-03-01T16:13:18.453Z,98964.53
2023-03-01T16:18:20.101Z,98947.44
2023-03-01T16:23:26.337Z,98947.38
2023-03-01T16:28:29.372Z,98943.84
2023-03-01T16:33:34.068Z,98941.25
2023-03-01T16:38:36.371Z,98948.09
2023-03-01T16:43:38.074Z,98942.91
2023-03-01T16:48:40.931Z,98938.56
2023-03-01T16:53:45.609Z,98952.59
2023-03-01T16:58:48.914Z,98956.13
2023-03-01T17:03:52.816Z,98960.56
2023-03-01T17:08:54.871Z,98978.97
2023-03-01T17:13:57.004Z,98979.06
2023-03-01T17:18:59.166Z,98981.75
2023-03-01T17:24:01.507Z,98972.59
2023-03-01T17:29:05.353Z,98975.94
2023-03-01T17:34:07.211Z,98989.06
2023-03-01T17:39:09.391Z,98988.22
2023-03-01T17:44:11.177Z,98987.91
2023-03-01T17:49:13.304Z,98987.72
2023-03-01T17:54:15.785Z,98989.72
2023-03-01T17:59:18.084Z,98990.53
2023-03-01T18:04:20.829Z,98987.19
2023-03-01T18:09:23.561Z,98987.97
2023-03-01T18:14:26.181Z,98986.28
2023-03-01T18:19:29.156Z,98981.84
2023-03-01T18:24:31.440Z,98976.19
2023-03-01T18:29:34.297Z,98981.91
2023-03-01T18:34:38.087Z,98978.59
2023-03-01T18:39:41.926Z,98983.47
2023-03-01T18:44:44.252Z,98990.69
2023-03-01T18:49:48.832Z,98990.81
2023-03-01T18:54:51.444Z,98993.31
2023-03-01T18:59:54.966Z,98998.44
2023-03-01T19:04:57.394Z,98997.88
2023-03-01T19:10:00.235Z,99008.38
2023-03-01T19:21:34.715Z,99011.66
2023-03-01T19:26:37.659Z,99005.06
2023-03-01T19:31:40.747Z,98993.38
2023-03-01T19:36:44.863Z,98993.16
2023-03-01T19:41:49.675Z,98998.50
2023-03-01T19:46:57.992Z,99008.09
2023-03-01T19:52:00.286Z,99012.19
2023-03-01T19:57:02.633Z,99014.84
2023-03-01T20:02:07.278Z,99010.44
2023-03-01T20:07:09.629Z,99010.56
2023-03-01T20:12:13.558Z,99007.81
2023-03-01T20:17:15.364Z,99014.66
2023-03-01T20:22:17.944Z,99014.72
2023-03-01T20:27:22.332Z,99018.38
2023-03-01T20:32:26.338Z,99018.31
2023-03-01T20:37:30.438Z,99015.53
2023-03-01T20:42:32.950Z,99014.66
2023-03-01T20:47:35.342Z,99008.88
2023-03-01T20:52:47.145Z,99010.28
2023-03-01T20:57:49.642Z,99007.66
2023-03-01T21:02:51.415Z,98996.34
2023-03-01T21:07:53.400Z,98997.34
2023-03-01T21:12:55.775Z,98990.25
2023-03-01T21:17:57.587Z,98978.72
2023-03-01T21:22:59.258Z,98981.31
2023-03-01T21:28:01.583Z,98969.22
2023-03-01T21:33:03.872Z,98964.13
2023-03-01T21:38:05.548Z,98964.94
2023-03-01T21:43:07.318Z,98960.50
2023-03-01T21:48:09.237Z,98952.56
2023-03-01T21:53:10.842Z,98959.66
2023-03-01T21:58:12.446Z,98956.13
2023-03-01T22:03:14.760Z,98957.69
2023-03-01T22:08:16.568Z,98954.22
2023-03-01T22:13:18.881Z,98959.72
2023-03-01T22:18:20.561Z,98952.66
2023-03-01T22:23:22.398Z,98951.81
2023-03-01T22:28:24.041Z,98968.53
2023-03-01T22:33:25.729Z,98952.03
2023-03-01T22:38:27.379Z,98947.63
2023-03-01T22:43:32.486Z,98949.72
2023-03-01T22:48:34.288Z,98935.41
2023-03-01T22:53:36.115Z,98932.91
2023-03-01T22:58:37.792Z,98938.19
2023-03-01T23:03:39.938Z,98936.28
2023-03-01T23:08:42.344Z,98938.06
2023-03-01T23:13:44.280Z,98936.47
2023-03-01T23:18:46.384Z,98929.59
2023-03-01T23:23:48.272Z,98944.34
2023-03-01T23:28:50.951Z,98933.88
2023-03-01T23:33:52.686Z,98935.75
2023-03-01T23:38:58.394Z,98926.13
2023-03-01T23:44:02.588Z,98924.22
2023-03-01T23:49:04.747Z,98926.75
2023-03-01T23:54:07.433Z,98920.34
2023-03-01T23:59:13.355Z,98922.28
